createdAt,value
2023-05-30T00:00:50.489Z,71.48
2023-05-30T00:06:06.724Z,68.21
2023-05-30T00:11:10.934Z,55.62
2023-05-30T00:16:15.376Z,54.44
2023-05-30T00:21:19.108Z,55.24
2023-05-30T00:26:22.119Z,55.82
2023-05-30T00:31:25.286Z,56.57
2023-05-30T00:36:28.336Z,57.48
2023-05-30T00:41:31.303Z,58.80
2023-05-30T00:46:34.216Z,59.85
2023-05-30T00:51:37.444Z,60.09
2023-05-30T00:56:40.298Z,70.11
2023-05-30T01:01:44.606Z,66.85
2023-05-30T01:06:47.943Z,55.63
2023-05-30T01:12:06.062Z,54.98
2023-05-30T01:17:19.452Z,56.05
2023-05-30T01:22:34.376Z,56.52
2023-05-30T01:28:06.072Z,57.52
2023-05-30T01:33:10.003Z,58.59
2023-05-30T01:38:14.002Z,59.80
2023-05-30T01:43:50.440Z,60.68
2023-05-30T01:49:18.301Z,72.42
2023-05-30T01:54:22.849Z,64.12
2023-05-30T01:59:27.383Z,55.29
2023-05-30T02:04:31.623Z,54.90
2023-05-30T02:09:34.417Z,56.30
2023-05-30T02:14:37.650Z,57.53
2023-05-30T02:19:40.697Z,59.20
2023-05-30T02:24:43.482Z,66.55
2023-05-30T02:29:46.211Z,67.14
2023-05-30T02:34:49.185Z,58.22
2023-05-30T02:39:51.905Z,55.39
2023-05-30T02:44:54.745Z,56.76
2023-05-30T02:49:57.596Z,59.06
2023-05-30T02:55:00.381Z,60.32
2023-05-30T03:00:03.718Z,67.78
2023-05-30T03:05:07.367Z,67.88
2023-05-30T03:10:10.583Z,62.43
2023-05-30T03:15:13.513Z,54.33
2023-05-30T03:20:17.335Z,55.37
2023-05-30T03:25:21.351Z,56.75
2023-05-30T03:30:27.819Z,59.25
2023-05-30T03:35:31.055Z,65.87
2023-05-30T03:40:34.687Z,65.47
2023-05-30T03:45:37.417Z,59.99
2023-05-30T03:50:40.134Z,54.36
2023-05-30T03:55:42.894Z,56.82
2023-05-30T04:00:45.639Z,57.50
2023-05-30T04:05:50.546Z,60.02
2023-05-30T04:10:53.805Z,68.72
2023-05-30T04:15:56.605Z,65.05
2023-05-30T04:20:59.953Z,58.21
2023-05-30T04:26:02.987Z,54.62
2023-05-30T04:31:20.220Z,56.23
2023-05-30T04:36:24.324Z,58.08
2023-05-30T04:41:27.269Z,60.23
2023-05-30T04:46:30.906Z,69.81
2023-05-30T04:51:34.221Z,64.68
2023-05-30T04:56:37.111Z,56.48
2023-05-30T05:01:42.585Z,55.86
2023-05-30T05:06:45.507Z,57.00
2023-05-30T05:11:48.471Z,59.09
2023-05-30T05:16:51.222Z,67.85
2023-05-30T05:21:57.266Z,63.36
2023-05-30T05:27:00.172Z,55.15
2023-05-30T05:32:03.150Z,56.27
2023-05-30T05:37:06.797Z,57.14
2023-05-30T05:42:09.624Z,60.12
2023-05-30T05:47:12.433Z,63.83
2023-05-30T05:52:15.214Z,60.39
2023-05-30T05:57:17.983Z,52.40
2023-05-30T06:02:20.776Z,53.47
2023-05-30T06:07:24.629Z,56.22
2023-05-30T06:12:27.633Z,57.55
2023-05-30T06:17:31.228Z,60.54
2023-05-30T06:22:36.582Z,60.51
2023-05-30T06:27:39.384Z,61.23
2023-05-30T06:32:43.997Z,65.26
2023-05-30T06:37:47.015Z,53.37
2023-05-30T06:42:49.880Z,50.48
2023-05-30T06:47:52.738Z,49.88
2023-05-30T06:52:55.875Z,52.19
2023-05-30T06:57:58.700Z,54.13
2023-05-30T07:03:02.296Z,53.08
2023-05-30T07:08:05.420Z,52.82
2023-05-30T07:13:08.320Z,52.26
2023-05-30T07:18:11.223Z,52.16
2023-05-30T07:23:14.079Z,50.67
2023-05-30T07:28:18.409Z,49.92
2023-05-30T07:33:21.464Z,48.68
2023-05-30T07:38:24.225Z,49.06
2023-05-30T07:43:29.489Z,47.80
2023-05-30T07:48:33.105Z,45.76
2023-05-30T07:53:36.007Z,44.47
2023-05-30T07:58:38.752Z,43.03
2023-05-30T08:03:41.741Z,42.23
2023-05-30T08:08:44.899Z,41.12
2023-05-30T08:13:48.892Z,41.47
2023-05-30T08:18:52.512Z,40.99
2023-05-30T08:23:56.591Z,40.42
2023-05-30T08:29:01.061Z,38.59
2023-05-30T08:34:05.101Z,37.70
2023-05-30T08:39:14.933Z,37.61
2023-05-30T08:44:18.146Z,36.83
2023-05-30T08:49:26.036Z,36.53
2023-05-30T08:59:42.986Z,35.62
2023-05-30T09:04:47.178Z,35.45
2023-05-30T09:09:52.347Z,34.76
2023-05-30T09:14:55.168Z,34.44
2023-05-30T09:19:58.282Z,33.12
2023-05-30T09:25:05.068Z,32.83
2023-05-30T09:30:11.802Z,33.07
2023-05-30T09:35:14.869Z,33.51
2023-05-30T09:40:18.189Z,33.18
2023-05-30T09:45:25.679Z,33.24
2023-05-30T09:50:31.851Z,32.18
2023-05-30T09:55:34.605Z,32.43
2023-05-30T10:00:37.451Z,32.17
2023-05-30T10:05:40.368Z,31.96
2023-05-30T10:10:52.761Z,31.32
2023-05-30T10:15:55.992Z,30.87
2023-05-30T10:21:01.519Z,31.02
2023-05-30T10:26:06.426Z,31.21
2023-05-30T10:31:12.826Z,30.60
2023-05-30T10:36:21.270Z,31.01
2023-05-30T10:41:36.318Z,30.75
2023-05-30T10:47:19.315Z,30.43
2023-05-30T10:52:32.715Z,30.71
2023-05-30T10:57:36.286Z,30.58
2023-05-30T11:02:40.240Z,29.88
2023-05-30T11:07:44.532Z,29.88
2023-05-30T11:12:49.304Z,29.71
2023-05-30T11:17:53.652Z,28.82
2023-05-30T11:23:03.333Z,28.84
2023-05-30T11:28:07.308Z,28.52
2023-05-30T11:33:19.238Z,28.20
2023-05-30T11:39:33.064Z,28.11
2023-05-30T11:44:37.462Z,28.55
2023-05-30T11:49:42.700Z,27.76
2023-05-30T11:54:48.384Z,27.88
2023-05-30T11:59:51.316Z,27.59
2023-05-30T12:05:02.406Z,27.46
2023-05-30T12:10:06.022Z,26.81
2023-05-30T12:15:10.336Z,27.14
2023-05-30T12:20:18.436Z,27.26
2023-05-30T12:25:28.567Z,27.28
2023-05-30T12:30:36.011Z,27.13
2023-05-30T12:35:40.855Z,26.84
2023-05-30T12:40:52.083Z,26.99
2023-05-30T12:46:10.349Z,26.79
2023-05-30T12:51:15.994Z,26.75
2023-05-30T12:56:24.361Z,26.48
2023-05-30T13:01:31.280Z,26.14
2023-05-30T13:06:34.075Z,25.67
2023-05-30T13:11:37.010Z,25.99
2023-05-30T13:16:40.172Z,26.12
2023-05-30T13:21:44.830Z,25.92
2023-05-30T13:26:47.678Z,25.94
2023-05-30T13:31:50.640Z,26.39
2023-05-30T13:36:53.742Z,26.38
2023-05-30T13:41:56.774Z,26.46
2023-05-30T13:46:59.639Z,26.46
2023-05-30T13:52:05.200Z,26.31
2023-05-30T13:57:08.962Z,26.09
2023-05-30T14:02:11.777Z,26.61
2023-05-30T14:07:15.838Z,26.92
2023-05-30T14:12:18.784Z,27.07
2023-05-30T14:17:21.552Z,26.90
2023-05-30T14:22:24.277Z,26.87
2023-05-30T14:27:27.041Z,27.11
2023-05-30T14:32:30.314Z,27.23
2023-05-30T14:37:33.054Z,27.25
2023-05-30T14:42:36.176Z,26.85
2023-05-30T14:47:38.984Z,26.85
2023-05-30T14:52:41.731Z,26.64
2023-05-30T14:57:44.487Z,26.87
2023-05-30T15:02:47.348Z,27.35
2023-05-30T15:07:51.243Z,27.43
2023-05-30T15:12:54.072Z,27.02
2023-05-30T15:17:57.227Z,27.17
2023-05-30T15:23:00.022Z,27.23
2023-05-30T15:28:03.181Z,27.08
2023-05-30T15:33:06.094Z,27.25
2023-05-30T15:38:08.992Z,27.26
2023-05-30T15:43:12.323Z,27.19
2023-05-30T15:48:15.234Z,27.37
2023-05-30T15:53:17.939Z,27.62
2023-05-30T15:58:20.945Z,27.40
2023-05-30T16:03:23.718Z,27.25
2023-05-30T16:08:26.534Z,27.24
2023-05-30T16:13:29.294Z,27.32
2023-05-30T16:18:32.067Z,27.54
2023-05-30T16:23:35.038Z,27.86
2023-05-30T16:28:37.819Z,28.13
2023-05-30T16:33:40.612Z,28.32
2023-05-30T16:38:43.409Z,28.57
2023-05-30T16:43:48.035Z,28.72
2023-05-30T16:48:50.853Z,28.87
2023-05-30T16:53:56.272Z,29.21
2023-05-30T16:59:00.540Z,29.38
2023-05-30T17:04:03.677Z,29.54
2023-05-30T17:09:10.154Z,29.91
2023-05-30T17:14:14.691Z,30.03
2023-05-30T17:19:28.528Z,30.38
2023-05-30T17:24:32.179Z,30.60
2023-05-30T17:29:37.116Z,30.87
2023-05-30T17:34:39.901Z,31.22
2023-05-30T17:39:42.807Z,31.30
2023-05-30T17:44:45.571Z,31.59
2023-05-30T17:49:48.303Z,31.90
2023-05-30T17:54:53.713Z,32.32
2023-05-30T17:59:57.138Z,32.74
2023-05-30T18:05:03.066Z,33.15
2023-05-30T18:10:06.183Z,33.30
2023-05-30T18:15:10.286Z,33.14
2023-05-30T18:20:13.521Z,33.37
2023-05-30T18:25:16.344Z,33.70
2023-05-30T18:30:19.096Z,33.85
2023-05-30T18:35:21.955Z,34.02
2023-05-30T18:40:24.972Z,34.28
2023-05-30T18:45:27.791Z,34.43
2023-05-30T18:50:30.793Z,34.68
2023-05-30T18:55:33.754Z,34.94
2023-05-30T19:00:36.497Z,35.23
2023-05-30T19:05:40.236Z,35.44
2023-05-30T19:10:43.259Z,35.78
2023-05-30T19:15:46.118Z,35.93
2023-05-30T19:20:50.685Z,36.40
2023-05-30T19:25:54.483Z,36.62
2023-05-30T19:30:57.196Z,36.92
2023-05-30T19:36:00.181Z,37.41
2023-05-30T19:41:03.983Z,37.98
2023-05-30T19:46:08.534Z,38.46
2023-05-30T19:51:11.613Z,38.63
2023-05-30T19:56:14.389Z,39.15
2023-05-30T20:01:17.328Z,39.68
2023-05-30T20:06:20.739Z,40.04
2023-05-30T20:11:23.537Z,40.38
2023-05-30T20:16:26.502Z,40.74
2023-05-30T20:21:29.566Z,40.68
2023-05-30T20:26:33.201Z,40.99
2023-05-30T20:31:36.289Z,40.98
2023-05-30T20:36:39.135Z,41.14
2023-05-30T20:41:41.981Z,41.29
2023-05-30T20:46:45.230Z,41.51
2023-05-30T20:51:48.236Z,41.73
2023-05-30T20:56:51.097Z,41.95
2023-05-30T21:01:53.918Z,42.08
2023-05-30T21:06:56.782Z,42.16
2023-05-30T21:11:59.551Z,42.41
2023-05-30T21:17:02.435Z,42.42
2023-05-30T21:22:05.809Z,42.74
2023-05-30T21:27:08.607Z,43.00
2023-05-30T21:32:11.466Z,43.16
2023-05-30T21:37:14.333Z,43.61
2023-05-30T21:42:17.173Z,43.70
2023-05-30T21:47:19.904Z,44.15
2023-05-30T21:52:27.201Z,44.41
2023-05-30T21:57:30.331Z,44.48
2023-05-30T22:02:33.105Z,44.59
2023-05-30T22:07:35.950Z,44.99
2023-05-30T22:12:38.829Z,45.31
2023-05-30T22:17:41.597Z,45.64
2023-05-30T22:22:44.684Z,45.95
2023-05-30T22:27:47.609Z,46.05
2023-05-30T22:32:50.643Z,46.54
2023-05-30T22:37:53.439Z,46.99
2023-05-30T22:42:56.410Z,47.11
2023-05-30T22:47:59.484Z,47.07
2023-05-30T22:53:02.369Z,47.45
2023-05-30T22:58:05.127Z,47.69
2023-05-30T23:03:13.106Z,47.96
2023-05-30T23:08:16.088Z,48.50
2023-05-30T23:13:20.119Z,48.84
2023-05-30T23:18:22.849Z,48.50
2023-05-30T23:23:25.661Z,48.57
2023-05-30T23:28:28.488Z,48.49
2023-05-30T23:33:31.746Z,48.80
2023-05-30T23:38:34.574Z,49.02
2023-05-30T23:43:38.255Z,49.70
2023-05-30T23:48:41.084Z,49.75
2023-05-30T23:53:44.539Z,49.86
2023-05-30T23:58:47.340Z,50.41
